Ana Sayfa
METAR-TAF:

METAR-TAF

Havaalanları :

Montgomery, Alabama, Amerika Birleşik Devletleri

Enlem: 32-18-01N, Boylam: 086-24-22W, yükseklik: 67 m

Güncel hava durumu gözlemi

Rapor saat 16:53 UTC de 53 dakika önce yapıldı.
Rüzgar kuzeydoğudan 4 kt
Sıcaklık 36°C
Nem 31%
Basınç 1015 hPa
Görüş mesafesi: 16.1 km
Açık gökyüzü

METAR: KMGM 251653Z 04004KT 10SM CLR 36/16 A2996 RMK AO2 SLP143 T03610156

Saat: 12:46 (17:46 UTC)

Tahmin

Rapor saat 17:20 UTC de 26 dakika önce yapıldı.
Ayın 25'si saat 18 UTC'den ayın 26'si saat 18 UTC'ye kadar geçerli Tahmin
Rüzgar kuzeydan 5 kt
Görüş mesafesi: 10 km
Açık gökyüzü
Ayın 26'si saat 0100 UTC'den
Rüzgar değişken yönden 3 kt
Görüş mesafesi: 10 km
25000 ft yükseklikte az bulutlu

TAF: KMGM 251720Z 2518/2618 35005KT P6SM SKC FM260100 VRB03KT P6SM FEW250

4.000'den fazla havaalanı için hava durumu gözlemleri ve tahminleri (METAR ve TAF raporları).

Kullanılabilir istasyonlar harita üzerinde sarı ve kırmızı noktalarla gösterilir.

İstasyonun adını görmek için fareyi noktanın üzerinde gezdirin.

Sonrasında hava gözlem ve tahminlerini görmek için tıklayın.

Haritayı değiştirmek için: yaklaştırmak için siyah artı işaretli yeşil düğmeye ve uzaklaştırmak için de eksi işaretli düğmeye hızla tıklayın; bitişik haritalar için yeşil okları kullanın.


METAR-TAF: